Time;durP1;ratioP1;P1;durP2;ratioP2;P2;SDS_P1;SDS_P2;PMS_P1;PMS_P2;Temp;Humidity;BMP_temperature;BMP_pressure;BME280_temperature;BME280_humidity;BME280_pressure;Samples;Min_cycle;Max_cycle;Signal;HPM_P1;HPM_P2
2022/11/07 00:00:22;;;;;;;30.17;15.98;;;;;;;13.45;68.67;99701.41;4959815;28;20377;-92
2022/11/07 00:02:48;;;;;;;32.15;16.77;;;;;;;13.52;68.41;99715.41;4960398;28;20141;-92
2022/11/07 00:05:13;;;;;;;24.88;15.73;;;;;;;13.55;68.63;99716.78;4961691;28;20029;-91
2022/11/07 00:07:39;;;;;;;28.92;16.10;;;;;;;13.66;68.25;99714.81;4975714;28;20116;-92
2022/11/07 00:10:05;;;;;;;28.50;16.63;;;;;;;13.73;68.06;99720.72;4975514;28;20034;-92
2022/11/07 00:12:30;;;;;;;32.63;16.30;;;;;;;13.68;67.99;99712.63;4956266;28;20390;-91
2022/11/07 00:14:56;;;;;;;29.92;16.08;;;;;;;13.72;68.14;99713.69;4973671;28;20030;-92
2022/11/07 00:17:21;;;;;;;31.80;16.40;;;;;;;13.64;68.25;99715.09;4977607;28;20416;-92
2022/11/07 00:19:48;;;;;;;26.08;15.52;;;;;;;13.75;68.51;99726.66;4958093;28;20030;-92
2022/11/07 00:22:13;;;;;;;26.20;15.88;;;;;;;13.67;68.58;99719.13;4964490;28;20172;-91
2022/11/07 00:24:39;;;;;;;31.95;15.77;;;;;;;13.68;68.18;99710.72;4961983;28;20117;-91
2022/11/07 00:27:05;;;;;;;24.05;15.52;;;;;;;13.71;68.19;99714.75;4994976;28;20033;-91
2022/11/07 00:29:30;;;;;;;31.52;16.35;;;;;;;13.75;68.33;99722.03;4958126;28;20037;-89
2022/11/07 00:31:56;;;;;;;29.60;16.33;;;;;;;13.68;68.43;99718.84;4960554;28;20051;-92
2022/11/07 00:34:21;;;;;;;29.65;16.20;;;;;;;13.72;67.88;99727.22;4959692;28;20034;-92
2022/11/07 00:36:46;;;;;;;26.77;17.05;;;;;;;13.69;68.27;99731.28;4960367;28;20099;-92
2022/11/07 00:39:12;;;;;;;33.33;16.50;;;;;;;13.72;68.32;99738.84;4980127;28;20069;-91
2022/11/07 00:41:37;;;;;;;30.02;17.08;;;;;;;13.60;68.58;99724.03;4978988;28;20416;-92
2022/11/07 00:44:03;;;;;;;28.23;16.58;;;;;;;13.58;68.64;99737.03;4963100;28;20030;-92
2022/11/07 00:46:29;;;;;;;28.40;16.05;;;;;;;13.57;68.63;99736.22;4976494;28;20033;-91
2022/11/07 00:48:54;;;;;;;28.85;16.75;;;;;;;13.62;68.37;99732.69;4963983;28;20029;-91
2022/11/07 00:51:21;;;;;;;28.33;15.75;;;;;;;13.72;68.44;99727.22;4963584;28;20026;-92
2022/11/07 00:53:47;;;;;;;37.15;16.63;;;;;;;13.64;68.15;99719.69;4961016;28;20027;-92
2022/11/07 00:56:17;;;;;;;28.17;15.20;;;;;;;13.71;67.85;99720.19;4963222;28;20121;-92
2022/11/07 00:58:43;;;;;;;30.25;15.13;;;;;;;13.68;68.68;99728.88;4978898;28;20038;-92
2022/11/07 01:01:14;;;;;;;33.90;16.13;;;;;;;13.64;68.40;99719.69;4975671;28;20031;-91
2022/11/07 01:06:25;;;;;;;26.02;14.77;;;;;;;13.74;68.04;99716.91;4983178;28;20045;-92
2022/11/07 01:08:52;;;;;;;27.42;15.68;;;;;;;13.71;68.05;99720.97;4978720;28;20030;-92
2022/11/07 01:11:17;;;;;;;27.92;15.25;;;;;;;13.69;68.35;99716.94;4961126;28;20113;-91
2022/11/07 01:13:43;;;;;;;30.75;15.82;;;;;;;13.72;67.96;99724.50;4959462;28;20037;-92
2022/11/07 01:16:12;;;;;;;29.90;15.00;;;;;;;13.64;68.39;99715.09;4962857;28;20580;-92
2022/11/07 01:18:37;;;;;;;24.95;14.43;;;;;;;13.56;68.92;99712.97;4977031;28;20113;-92
2022/11/07 01:21:04;;;;;;;28.75;15.75;;;;;;;13.62;68.65;99703.72;4978209;28;20088;-91
2022/11/07 01:23:30;;;;;;;26.40;14.30;;;;;;;13.60;68.45;99691.56;4979755;28;20074;-91
2022/11/07 01:25:55;;;;;;;27.92;15.45;;;;;;;13.53;68.38;99692.69;4962795;28;20127;-92
2022/11/07 01:28:21;;;;;;;31.05;16.52;;;;;;;13.65;68.86;99708.56;4979425;28;20033;-92
2022/11/07 01:30:46;;;;;;;26.98;15.40;;;;;;;13.62;68.21;99701.03;4960070;28;20026;-92
2022/11/07 01:33:12;;;;;;;31.33;15.32;;;;;;;13.61;68.33;99715.63;4959138;28;20030;-92
2022/11/07 01:35:37;;;;;;;23.80;15.07;;;;;;;13.62;68.24;99708.34;4976554;28;20041;-92
2022/11/07 01:38:03;;;;;;;27.33;15.13;;;;;;;13.72;68.36;99719.91;4975454;28;20420;-93
2022/11/07 01:40:29;;;;;;;27.10;15.52;;;;;;;13.52;68.55;99692.97;4986823;28;20066;-91
2022/11/07 01:42:55;;;;;;;24.23;14.80;;;;;;;13.64;68.27;99715.09;4994552;28;20137;-92
2022/11/07 01:45:25;;;;;;;30.40;16.15;;;;;;;13.59;68.67;99709.69;4978007;28;20064;-92
2022/11/07 01:47:51;;;;;;;29.65;15.68;;;;;;;13.60;68.46;99705.09;4958762;28;20117;-91
2022/11/07 01:50:16;;;;;;;33.55;16.98;;;;;;;13.65;68.52;99713.19;4962685;28;20488;-94
2022/11/07 01:52:42;;;;;;;26.25;15.23;;;;;;;13.52;68.68;99691.06;4977111;28;20026;-92
2022/11/07 01:55:21;;;;;;;32.75;16.35;;;;;;;13.66;68.61;99718.31;4979353;28;20034;-92
2022/11/07 01:57:48;;;;;;;30.42;16.05;;;;;;;13.63;68.59;99724.28;4977314;28;20055;-92
2022/11/07 02:00:15;;;;;;;32.35;17.10;;;;;;;13.54;68.90;99712.44;4977029;28;20030;-91
2022/11/07 02:02:41;;;;;;;30.77;15.90;;;;;;;13.51;68.94;99705.69;4962846;28;20030;-92
2022/11/07 02:05:07;;;;;;;28.85;17.10;;;;;;;13.51;68.44;99689.47;4962629;28;20041;-92
2022/11/07 02:07:32;;;;;;;31.73;16.85;;;;;;;13.60;68.52;99710.50;4977744;28;20060;-92
2022/11/07 02:09:58;;;;;;;30.60;16.55;;;;;;;13.48;68.73;99692.72;4961457;28;20053;-91
2022/11/07 02:12:24;;;;;;;28.33;15.95;;;;;;;13.47;69.13;99698.44;4962833;28;20033;-92
2022/11/07 02:14:50;;;;;;;30.58;15.30;;;;;;;13.43;69.12;99702.78;4962536;28;20412;-92
2022/11/07 02:17:15;;;;;;;30.50;16.73;;;;;;;13.36;69.18;99688.72;4975655;28;20034;-92
2022/11/07 02:19:47;;;;;;;28.92;15.35;;;;;;;13.56;68.96;99710.25;4961284;28;20061;-92
2022/11/07 02:22:40;;;;;;;28.27;16.38;;;;;;;13.56;69.00;99717.56;4976702;28;20042;-92
2022/11/07 02:25:08;;;;;;;23.50;14.88;;;;;;;13.41;68.91;99689.53;4979541;28;20022;-92
2022/11/07 02:27:33;;;;;;;26.70;15.52;;;;;;;13.53;68.97;99705.44;4960424;28;20030;-91
2022/11/07 02:30:04;;;;;;;31.90;16.27;;;;;;;13.42;69.26;99693.03;4962201;28;20060;-92
2022/11/07 02:32:30;;;;;;;33.13;15.32;;;;;;;13.47;69.53;99703.84;4977101;28;20030;-92
2022/11/07 02:35:03;;;;;;;30.70;15.82;;;;;;;13.45;69.15;99689.78;4975361;28;20030;-92
2022/11/07 02:37:30;;;;;;;28.63;15.15;;;;;;;13.42;69.20;99687.63;4963646;28;20033;-92
2022/11/07 02:39:57;;;;;;;26.48;15.00;;;;;;;13.39;69.31;99696.31;4960689;28;20057;-92
2022/11/07 02:42:23;;;;;;;24.90;15.38;;;;;;;13.41;69.10;99699.53;4959956;28;20026;-92
2022/11/07 02:44:48;;;;;;;25.17;15.35;;;;;;;13.46;69.00;99708.41;4960680;28;20037;-91
2022/11/07 02:47:14;;;;;;;22.77;14.82;;;;;;;13.47;68.67;99691.09;4962983;28;20092;-92
2022/11/07 02:49:39;;;;;;;28.70;14.85;;;;;;;13.62;68.17;99700.22;4963241;28;20040;-92
2022/11/07 02:52:05;;;;;;;27.25;15.80;;;;;;;13.65;68.54;99716.69;4962436;28;20477;-92
2022/11/07 02:54:30;;;;;;;28.25;15.40;;;;;;;13.64;68.74;99719.69;4961775;28;20038;-92
2022/11/07 02:56:56;;;;;;;28.55;15.25;;;;;;;13.61;68.79;99722.94;4961674;28;20080;-92
2022/11/07 02:59:21;;;;;;;26.55;15.25;;;;;;;13.64;68.43;99714.28;4961211;28;20524;-91
2022/11/07 03:01:47;;;;;;;26.98;15.15;;;;;;;13.66;68.20;99712.09;4961376;28;20031;-92
2022/11/07 03:04:12;;;;;;;31.08;15.68;;;;;;;13.58;68.88;99715.41;4961041;28;20036;-92
2022/11/07 03:06:38;;;;;;;27.38;15.90;;;;;;;13.32;69.69;99713.66;4959321;28;20034;-91
2022/11/07 03:09:03;;;;;;;31.13;16.05;;;;;;;13.50;69.25;99722.19;4959389;28;20030;-91
2022/11/07 03:11:29;;;;;;;26.92;15.18;;;;;;;13.45;69.16;99720.34;4960916;28;20030;-92
2022/11/07 03:13:57;;;;;;;22.80;14.40;;;;;;;13.38;69.73;99719.81;4976123;28;20030;-92
2022/11/07 03:16:22;;;;;;;23.88;14.27;;;;;;;13.44;69.03;99718.69;4977460;28;20026;-92
2022/11/07 03:18:50;;;;;;;25.95;13.85;;;;;;;13.21;69.93;99725.53;4962196;28;20041;-93
2022/11/07 03:21:16;;;;;;;24.42;15.18;;;;;;;13.25;70.20;99733.94;4958599;28;20058;-91
2022/11/07 03:23:41;;;;;;;25.90;14.50;;;;;;;13.21;69.75;99722.84;4976196;28;20053;-92
2022/11/07 03:26:06;;;;;;;26.58;14.68;;;;;;;13.20;69.55;99720.41;4959858;28;20033;-93
2022/11/07 03:28:32;;;;;;;25.65;14.88;;;;;;;13.21;69.88;99743.69;4975426;28;20033;-91
2022/11/07 03:31:01;;;;;;;26.17;15.52;;;;;;;12.97;70.62;99722.69;4957835;28;20468;-93
2022/11/07 03:33:28;;;;;;;26.42;14.20;;;;;;;13.02;70.76;99741.56;4961343;28;20678;-92
2022/11/07 03:35:53;;;;;;;26.15;12.93;;;;;;;13.10;70.42;99721.28;4976221;28;20034;-90
2022/11/07 03:38:19;;;;;;;25.27;13.50;;;;;;;13.23;70.40;99739.59;4976713;28;20069;-92
2022/11/07 03:40:45;;;;;;;25.63;14.25;;;;;;;13.23;69.88;99730.69;4974639;28;20034;-91
2022/11/07 03:43:10;;;;;;;25.85;12.90;;;;;;;13.31;69.64;99735.56;4956732;28;20038;-92
2022/11/07 03:45:36;;;;;;;27.00;13.07;;;;;;;13.41;69.89;99746.31;4973976;28;20041;-91
2022/11/07 03:48:01;;;;;;;23.80;14.02;;;;;;;13.33;69.70;99730.69;4987398;28;20053;-90
2022/11/07 03:50:27;;;;;;;26.00;13.90;;;;;;;13.36;69.84;99742.81;4956340;28;20029;-91
2022/11/07 03:52:52;;;;;;;23.92;13.77;;;;;;;13.17;70.76;99739.91;4975874;28;20034;-91
2022/11/07 03:55:18;;;;;;;25.20;13.15;;;;;;;13.24;70.23;99732.28;4974498;28;20026;-93
2022/11/07 03:57:43;;;;;;;21.67;12.60;;;;;;;13.19;70.27;99735.03;4967952;28;20025;-91
2022/11/07 04:00:10;;;;;;;20.83;12.23;;;;;;;13.31;69.83;99741.75;4958670;28;20401;-91
2022/11/07 04:02:35;;;;;;;22.25;12.20;;;;;;;13.24;70.22;99743.94;4958805;28;20037;-91
2022/11/07 04:05:01;;;;;;;18.48;9.30;;;;;;;13.36;70.07;99746.34;4960342;28;20026;-90
2022/11/07 04:07:26;;;;;;;21.40;12.73;;;;;;;13.28;70.44;99749.56;4967566;28;20040;-90
2022/11/07 04:09:52;;;;;;;20.35;11.63;;;;;;;13.23;70.01;99733.41;4958130;28;20378;-91
2022/11/07 04:17:45;;;;;;;23.77;12.65;;;;;;;13.35;69.88;99744.72;4984603;28;20170;-91
2022/11/07 04:20:11;;;;;;;25.70;13.25;;;;;;;13.42;69.50;99760.66;4964081;28;20496;-91
2022/11/07 04:22:36;;;;;;;117.90;20.25;;;;;;;13.26;70.12;99751.75;4965637;28;20044;-91
2022/11/07 04:25:02;;;;;;;25.73;11.93;;;;;;;13.38;69.82;99752.28;4967026;28;20033;-91
2022/11/07 04:27:42;;;;;;;24.40;12.50;;;;;;;13.29;70.02;99751.25;4966981;28;20026;-91
2022/11/07 04:30:20;;;;;;;21.63;9.63;;;;;;;13.30;69.69;99748.28;4970427;28;20026;-91
2022/11/07 04:32:50;;;;;;;14.43;8.85;;;;;;;13.27;70.39;99764.19;4968689;28;20062;-90
2022/11/07 04:35:15;;;;;;;16.48;10.00;;;;;;;13.06;70.77;99749.94;4982580;28;20088;-91
2022/11/07 04:37:41;;;;;;;16.98;9.63;;;;;;;13.08;70.81;99751.28;4959884;28;20057;-92
2022/11/07 04:40:07;;;;;;;21.30;11.75;;;;;;;12.90;71.19;99747.28;4978912;28;20023;-91
2022/11/07 04:42:33;;;;;;;24.02;12.63;;;;;;;12.96;70.84;99749.97;4985181;28;20029;-91
2022/11/07 04:44:58;;;;;;;23.10;11.13;;;;;;;13.03;71.18;99766.72;4981627;28;20034;-91
2022/11/07 04:47:24;;;;;;;23.23;11.05;;;;;;;12.97;71.05;99757.00;4966140;28;20034;-92
2022/11/07 04:49:49;;;;;;;21.52;10.10;;;;;;;12.96;71.02;99764.28;4966847;28;20022;-94
2022/11/07 04:52:15;;;;;;;21.15;10.30;;;;;;;12.85;71.26;99758.13;4966749;28;20025;-93
2022/11/07 04:54:40;;;;;;;23.77;11.05;;;;;;;12.76;71.24;99756.22;4967006;28;20088;-93
2022/11/07 04:57:06;;;;;;;15.85;7.53;;;;;;;12.79;71.36;99756.50;4966427;28;20076;-92
2022/11/07 04:59:31;;;;;;;12.02;6.18;;;;;;;12.70;71.55;99760.81;4966228;28;20057;-92
2022/11/07 05:01:57;;;;;;;18.40;7.10;;;;;;;12.70;71.33;99766.22;4966765;28;20435;-94
2022/11/07 05:04:22;;;;;;;10.57;5.35;;;;;;;12.71;71.07;99760.56;4966957;28;20034;-92
2022/11/07 05:06:48;;;;;;;14.73;6.07;;;;;;;12.80;71.40;99778.94;4983404;28;20084;-92
2022/11/07 05:09:15;;;;;;;12.52;5.45;;;;;;;12.80;71.02;99785.13;4966675;28;20053;-93
2022/11/07 05:11:41;;;;;;;9.38;5.15;;;;;;;12.51;71.25;99763.28;4983114;28;20099;-95
2022/11/07 05:14:07;;;;;;;11.52;4.68;;;;;;;12.51;71.35;99764.13;4969600;28;20022;-95
2022/11/07 05:16:32;;;;;;;10.27;5.38;;;;;;;12.48;71.32;99764.66;4970963;28;20025;-94
2022/11/07 05:18:58;;;;;;;13.40;5.35;;;;;;;12.61;71.01;99797.59;4986154;28;20053;-95
2022/11/07 05:21:24;;;;;;;9.25;5.20;;;;;;;12.64;71.07;99805.19;4985719;28;20030;-94
2022/11/07 05:23:49;;;;;;;10.35;5.05;;;;;;;12.49;70.91;99789.75;4986653;28;20018;-96
2022/11/07 05:26:15;;;;;;;13.68;5.40;;;;;;;12.52;70.91;99792.75;4986676;28;20033;-93
2022/11/07 05:28:40;;;;;;;9.45;4.78;;;;;;;12.49;70.62;99781.66;4967460;28;20021;-93
2022/11/07 05:31:06;;;;;;;8.40;4.97;;;;;;;12.55;70.76;99791.38;4983472;28;20018;-91
2022/11/07 05:33:32;;;;;;;11.82;4.95;;;;;;;12.58;70.49;99808.97;4983694;28;20022;-91
2022/11/07 05:36:19;;;;;;;20.83;8.43;;;;;;;12.48;71.25;99801.66;4963828;28;20109;-92
2022/11/07 05:38:46;;;;;;;17.88;8.52;;;;;;;12.46;71.15;99809.22;4934374;28;20082;-90
2022/11/07 05:41:12;;;;;;;15.55;7.80;;;;;;;12.48;71.19;99818.66;4965134;28;20235;-94
2022/11/07 05:43:38;;;;;;;41.95;9.45;;;;;;;12.42;70.74;99810.84;4931990;28;20126;-94
2022/11/07 05:46:04;;;;;;;19.42;8.32;;;;;;;12.46;70.98;99815.41;4927620;28;20061;-95
2022/11/07 05:48:29;;;;;;;15.82;8.93;;;;;;;12.53;71.16;99829.50;4922604;28;20038;-93
2022/11/07 05:50:56;;;;;;;19.45;9.20;;;;;;;12.49;71.31;99824.88;4930211;28;20453;-93
2022/11/07 05:53:24;;;;;;;17.13;8.98;;;;;;;12.44;71.96;99822.97;4943504;28;20550;-92
2022/11/07 05:55:50;;;;;;;21.23;10.00;;;;;;;12.39;72.29;99831.09;4937767;28;20039;-93
2022/11/07 05:58:15;;;;;;;28.13;11.98;;;;;;;12.30;72.95;99851.59;4929305;28;20042;-93
2022/11/07 06:00:43;;;;;;;22.42;10.82;;;;;;;12.37;72.21;99827.84;4963637;28;20031;-93
2022/11/07 06:03:09;;;;;;;17.98;10.32;;;;;;;12.34;72.57;99833.78;4913253;29;20031;-94
2022/11/07 06:05:42;;;;;;;22.13;10.27;;;;;;;12.33;72.09;99824.88;4933179;29;20128;-95
2022/11/07 06:08:24;;;;;;;14.70;8.75;;;;;;;12.45;71.80;99840.81;4937481;29;20027;-94
2022/11/07 06:10:49;;;;;;;;;;;;;;;12.64;72.38;99881.63;4986312;28;20034;-94
2022/11/07 06:13:21;;;;;;;17.55;8.07;;;;;;;12.48;72.43;99869.19;5000828;28;19916;-93
2022/11/07 06:15:46;;;;;;;12.35;7.32;;;;;;;12.37;72.44;99857.56;5000555;28;20026;-96
2022/11/07 06:18:42;;;;;;;17.30;7.90;;;;;;;12.42;71.59;99845.94;4982482;28;20030;-93
2022/11/07 06:21:08;;;;;;;17.98;7.35;;;;;;;12.56;71.14;99863.25;4973839;28;20042;-92
2022/11/07 06:23:33;;;;;;;15.18;6.70;;;;;;;12.74;70.33;99861.88;4982883;28;20038;-92
2022/11/07 06:25:59;;;;;;;18.42;7.03;;;;;;;12.72;70.94;99880.25;5012270;28;20451;-91
2022/11/07 06:28:29;;;;;;;25.85;9.98;;;;;;;12.73;70.98;99882.69;5017592;28;20033;-94
2022/11/07 06:30:59;;;;;;;20.65;8.60;;;;;;;12.81;70.20;99867.03;5003207;28;20048;-91
2022/11/07 06:33:24;;;;;;;17.70;6.32;;;;;;;12.86;69.41;99869.72;4986877;28;20092;-91
2022/11/07 06:36:22;;;;;;;11.80;5.85;;;;;;;12.96;69.24;99895.94;5008351;28;20060;-91
2022/11/07 06:38:51;;;;;;;14.70;6.18;;;;;;;12.96;69.07;99871.63;5018675;28;20102;-92
2022/11/07 06:41:38;;;;;;;14.82;6.03;;;;;;;13.01;68.10;99877.00;4976299;28;20021;-96
2022/11/07 06:44:04;;;;;;;10.43;5.22;;;;;;;13.25;68.02;99898.88;4996465;28;20567;-93
2022/11/07 06:46:34;;;;;;;13.68;6.15;;;;;;;13.23;67.54;99895.63;5035489;28;20025;-93
2022/11/07 06:49:00;;;;;;;13.73;5.90;;;;;;;13.17;67.40;99886.72;4990114;28;20026;-92
2022/11/07 06:51:25;;;;;;;11.65;5.50;;;;;;;13.23;67.22;99891.03;4979086;28;20030;-95
2022/11/07 06:54:00;;;;;;;11.00;4.68;;;;;;;13.26;66.94;99892.38;5005470;28;20057;-94
2022/11/07 06:56:25;;;;;;;9.02;5.13;;;;;;;13.23;66.73;99892.94;4963411;28;20040;-91
2022/11/07 06:58:51;;;;;;;11.77;4.82;;;;;;;13.26;66.86;99892.38;4964897;28;20026;-94
2022/11/07 07:01:16;;;;;;;23.48;14.23;;;;;;;13.33;66.79;99891.03;4974156;28;20029;-92
2022/11/07 07:03:42;;;;;;;9.25;5.30;;;;;;;13.53;65.89;99903.72;4988209;28;20091;-93
2022/11/07 07:06:15;;;;;;;12.00;5.57;;;;;;;13.49;66.08;99897.25;4976273;28;20534;-95
2022/11/07 07:08:43;;;;;;;10.88;4.43;;;;;;;13.46;65.92;99888.84;4980958;28;20487;-92
2022/11/07 07:11:13;;;;;;;11.10;4.32;;;;;;;13.45;65.72;99893.47;4993470;28;20022;-91
2022/11/07 07:13:43;;;;;;;15.07;5.13;;;;;;;13.61;65.68;99904.22;4971758;28;20033;-92
2022/11/07 07:16:09;;;;;;;8.73;4.50;;;;;;;13.63;65.08;99904.75;4996651;28;20037;-93
2022/11/07 07:18:37;;;;;;;13.07;4.88;;;;;;;13.65;64.63;99902.59;4998183;28;20061;-93
2022/11/07 07:21:50;;;;;;;;;;;;;;;;;;;;;
2022/11/07 07:24:17;;;;;;;39.67;23.20;;;;;;;13.65;64.34;99899.88;4981527;28;20571;-92
2022/11/07 07:26:51;;;;;;;15.25;5.50;;;;;;;13.80;64.12;99907.13;4965193;28;20042;-95
2022/11/07 07:29:16;;;;;;;8.55;4.70;;;;;;;13.82;63.59;99908.50;4985518;28;20029;-92
2022/11/07 07:31:54;;;;;;;17.23;5.78;;;;;;;13.94;63.38;99921.69;4976501;28;20080;-92
2022/11/07 07:34:19;;;;;;;10.60;4.65;;;;;;;13.97;62.81;99920.34;4975317;28;20037;-94
2022/11/07 07:36:48;;;;;;;11.20;4.70;;;;;;;13.99;62.69;99907.34;4970479;28;20030;-91
2022/11/07 07:39:14;;;;;;;13.35;7.70;;;;;;;14.23;62.64;99926.44;4958442;28;20086;-93
2022/11/07 07:41:48;;;;;;;9.15;4.55;;;;;;;14.25;61.76;99916.16;4961819;28;20129;-94
2022/11/07 07:44:14;;;;;;;11.85;4.85;;;;;;;14.31;61.97;99917.72;4977535;28;20116;-93
2022/11/07 07:46:40;;;;;;;17.80;6.03;;;;;;;14.36;61.49;99904.19;4978550;28;20077;-94
2022/11/07 07:49:10;;;;;;;11.70;4.97;;;;;;;14.42;61.30;99923.91;4979684;28;20029;-92
2022/11/07 07:51:41;;;;;;;18.42;5.97;;;;;;;14.33;61.51;99918.28;4987585;28;20058;-92
2022/11/07 07:54:09;;;;;;;13.65;6.63;;;;;;;14.42;61.12;99916.59;4977804;28;20097;-90
2022/11/07 07:56:37;;;;;;;36.40;14.65;;;;;;;14.65;60.29;99912.41;4980292;28;20090;-90
2022/11/07 07:59:51;;;;;;;8.48;5.22;;;;;;;14.77;60.31;99936.44;4980168;28;20483;-91
2022/11/07 08:02:37;;;;;;;78.03;29.33;;;;;;;14.83;60.35;99934.50;4965705;28;20560;-92
2022/11/07 08:09:02;;;;;;;13.32;5.88;;;;;;;14.95;59.78;99927.63;4906429;29;20084;-94
2022/11/07 08:11:28;;;;;;;16.08;6.40;;;;;;;14.80;60.04;99899.84;4912750;28;20046;-91
2022/11/07 08:13:54;;;;;;;16.90;5.25;;;;;;;14.91;59.57;99901.34;4954012;28;20046;-91
2022/11/07 08:16:22;;;;;;;12.73;5.00;;;;;;;14.97;59.42;99912.97;4948509;28;20030;-93
2022/11/07 08:18:47;;;;;;;11.52;4.95;;;;;;;14.99;58.72;99906.16;4944278;28;20038;-92
2022/11/07 08:21:13;;;;;;;11.32;4.47;;;;;;;14.99;59.12;99930.59;4944265;28;20031;-92
2022/11/07 08:23:41;;;;;;;10.45;4.60;;;;;;;14.94;59.18;99906.19;4948286;28;20037;-93
2022/11/07 08:26:40;;;;;;;10.20;5.18;;;;;;;14.99;59.02;99908.09;4969665;28;20152;-94
2022/11/07 08:29:24;;;;;;;16.42;9.95;;;;;;;14.93;59.36;99910.03;5005096;28;20022;-94
2022/11/07 08:34:35;;;;;;;11.68;5.93;;;;;;;14.98;58.48;99904.53;5383782;23;20050;-94
2022/11/07 08:37:03;;;;;;;13.57;4.88;;;;;;;14.92;58.64;99905.66;4960768;28;20033;-95
2022/11/07 08:39:29;;;;;;;12.23;5.40;;;;;;;15.15;58.41;99913.06;4956547;28;20057;-94
2022/11/07 08:41:59;;;;;;;10.68;5.00;;;;;;;15.15;57.91;99915.00;4947966;28;20023;-93
2022/11/07 08:44:31;;;;;;;12.80;5.20;;;;;;;15.08;58.26;99911.78;4952123;28;20029;-93
2022/11/07 08:47:01;;;;;;;8.77;4.55;;;;;;;15.30;57.71;99927.59;4971167;28;20027;-93
2022/11/07 08:49:30;;;;;;;9.00;4.60;;;;;;;15.43;57.38;99921.47;4931422;28;20030;-96
2022/11/07 08:52:05;;;;;;;9.98;5.47;;;;;;;15.62;57.12;99937.03;4936680;28;20014;-94
2022/11/07 08:54:32;;;;;;;8.57;5.05;;;;;;;15.61;56.65;99914.53;4949148;28;20034;-94
2022/11/07 08:57:01;;;;;;;14.15;8.65;;;;;;;15.76;55.81;99919.78;4944298;28;20432;-93
2022/11/07 08:59:29;;;;;;;14.38;6.18;;;;;;;15.91;56.14;99932.38;4949247;28;20397;-95
2022/11/07 09:02:01;;;;;;;12.73;5.80;;;;;;;15.78;56.14;99916.78;4951805;28;20037;-93
2022/11/07 09:04:29;;;;;;;8.07;4.82;;;;;;;15.94;55.63;99915.50;4977549;28;20034;-91
2022/11/07 09:06:58;;;;;;;11.90;5.25;;;;;;;16.03;55.62;99929.25;4949959;28;20049;-96
2022/11/07 09:09:24;;;;;;;10.18;5.40;;;;;;;16.06;55.83;99938.72;4950299;28;20480;-93
2022/11/07 09:11:51;;;;;;;9.15;5.10;;;;;;;16.08;55.58;99928.38;4962038;28;20058;-94
2022/11/07 09:14:20;;;;;;;28.42;16.55;;;;;;;15.91;55.66;99916.09;4947696;28;20117;-92
2022/11/07 09:16:50;;;;;;;13.50;5.78;;;;;;;16.04;55.69;99924.63;4979491;28;20155;-92
2022/11/07 09:19:26;;;;;;;11.52;5.68;;;;;;;16.11;55.05;99919.66;4962016;28;20052;-93
2022/11/07 09:21:52;;;;;;;12.45;5.05;;;;;;;15.89;55.40;99907.41;4950936;28;20500;-94
2022/11/07 09:24:17;;;;;;;10.82;5.40;;;;;;;16.09;55.36;99924.56;4948992;28;20030;-92
2022/11/07 09:26:43;;;;;;;12.30;5.55;;;;;;;16.12;54.87;99918.53;4932760;28;20042;-95
2022/11/07 09:29:08;;;;;;;9.68;4.82;;;;;;;16.07;54.76;99911.28;4945445;28;20065;-95
2022/11/07 09:31:35;;;;;;;10.57;5.53;;;;;;;16.23;54.57;99911.06;4949488;28;20539;-96
2022/11/07 09:34:08;;;;;;;14.07;7.78;;;;;;;16.09;54.72;99898.22;4963338;28;20050;-94
2022/11/07 09:36:33;;;;;;;29.00;14.20;;;;;;;16.22;54.35;99907.53;4986640;28;20026;-91
2022/11/07 09:38:59;;;;;;;11.02;6.05;;;;;;;16.22;53.61;99906.75;5001597;28;20427;-94
2022/11/07 09:41:56;;;;;;;10.18;5.80;;;;;;;16.35;54.36;99931.28;5002374;28;20025;-95
2022/11/07 09:44:58;;;;;;;15.85;7.78;;;;;;;16.42;53.94;99925.47;5036730;28;20045;-95
2022/11/07 09:48:31;;;;;;;12.18;5.13;;;;;;;16.39;54.21;99926.06;4991444;28;20029;-96
2022/11/07 09:50:56;;;;;;;19.48;7.15;;;;;;;16.23;53.41;99895.59;5019302;28;20068;-95
2022/11/07 09:54:18;;;;;;;;;;;;;;;;;;;;;
2022/11/07 09:56:57;;;;;;;11.05;5.32;;;;;;;16.25;53.60;99914.28;4985877;28;20133;-95
2022/11/07 09:59:43;;;;;;;9.85;5.53;;;;;;;16.29;53.06;99902.56;4987614;28;20022;-96
2022/11/07 10:02:39;;;;;;;14.40;6.90;;;;;;;16.32;53.57;99899.25;4979761;28;20042;-94
2022/11/07 10:05:25;;;;;;;11.05;5.28;;;;;;;16.60;53.11;99914.88;5003943;28;20038;-95
2022/11/07 10:07:59;;;;;;;12.65;6.53;;;;;;;16.59;53.37;99913.28;5003734;28;20029;-92
2022/11/07 10:10:51;;;;;;;10.70;5.55;;;;;;;16.45;52.75;99899.63;4982309;28;20040;-95
2022/11/07 10:13:34;;;;;;;14.45;6.00;;;;;;;16.72;52.84;99920.69;4988163;28;20121;-93
2022/11/07 10:16:31;;;;;;;31.40;20.55;;;;;;;16.58;52.15;99885.28;5036363;28;20116;-95
2022/11/07 10:19:38;;;;;;;10.88;4.88;;;;;;;16.87;51.91;99915.03;5008803;28;20247;-94
2022/11/07 10:22:13;;;;;;;14.70;5.85;;;;;;;16.77;51.57;99896.13;5009691;28;20029;-96
2022/11/07 10:24:54;;;;;;;8.00;5.10;;;;;;;17.00;51.10;99909.94;5004453;28;20064;-95
2022/11/07 10:27:19;;;;;;;10.57;5.07;;;;;;;16.75;51.71;99898.34;5018629;28;20025;-95
2022/11/07 10:29:52;;;;;;;10.65;5.47;;;;;;;16.80;51.32;99895.53;4987089;28;20029;-92
2022/11/07 10:32:40;;;;;;;12.95;5.32;;;;;;;16.85;51.33;99909.09;4983511;28;20053;-91
2022/11/07 10:35:11;;;;;;;12.15;4.78;;;;;;;16.75;51.51;99910.03;5002342;28;20053;-90
2022/11/07 10:37:37;;;;;;;11.43;5.43;;;;;;;16.75;50.99;99895.63;5034740;28;20026;-91
2022/11/07 10:40:18;;;;;;;9.93;5.32;;;;;;;16.88;51.51;99891.38;5002350;28;20040;-94
2022/11/07 10:42:43;;;;;;;13.18;6.28;;;;;;;16.74;51.50;99894.81;5002307;28;20026;-90
2022/11/07 10:45:11;;;;;;;13.18;8.00;;;;;;;16.75;51.70;99892.91;4985318;28;20029;-92
2022/11/07 10:47:43;;;;;;;10.45;7.18;;;;;;;16.95;50.40;99897.22;5012466;28;20057;-92
2022/11/07 10:50:49;;;;;;;14.02;5.28;;;;;;;16.76;50.57;99875.47;5002305;28;20325;-95
2022/11/07 10:53:17;;;;;;;17.00;5.53;;;;;;;16.83;51.09;99869.69;4982392;28;20404;-92
2022/11/07 10:55:44;;;;;;;17.60;7.70;;;;;;;16.76;50.51;99867.31;4997195;28;20026;-94
2022/11/07 10:58:19;;;;;;;17.73;9.93;;;;;;;16.67;51.07;99885.44;4980723;28;20030;-91
2022/11/07 11:00:54;;;;;;;11.05;5.57;;;;;;;16.79;50.98;99869.47;4993370;28;20033;-94
2022/11/07 11:03:25;;;;;;;12.35;5.28;;;;;;;16.86;50.48;99882.69;4994094;28;20407;-94
2022/11/07 11:05:55;;;;;;;12.32;5.40;;;;;;;16.95;50.45;99864.56;4997592;28;20030;-94
2022/11/07 11:08:22;;;;;;;10.00;5.00;;;;;;;17.00;50.11;99856.34;4999427;28;20029;-94
2022/11/07 11:10:48;;;;;;;10.77;4.47;;;;;;;17.19;49.51;99863.63;4983245;28;20088;-93
2022/11/07 11:13:59;;;;;;;11.10;5.13;;;;;;;17.33;49.19;99878.06;4988772;28;20447;-94
2022/11/07 11:16:31;;;;;;;9.02;5.10;;;;;;;16.99;49.84;99851.19;4939908;28;20544;-93
2022/11/07 11:19:02;;;;;;;13.15;5.88;;;;;;;16.92;50.67;99851.59;4959171;28;20069;-96
2022/11/07 11:21:41;;;;;;;13.18;5.95;;;;;;;16.76;50.34;99838.19;4975467;28;20097;-95
2022/11/07 11:24:19;;;;;;;16.52;7.38;;;;;;;16.79;50.50;99842.25;4964222;28;20033;-92
2022/11/07 11:26:45;;;;;;;11.13;5.22;;;;;;;16.84;50.85;99853.06;4994380;28;20033;-95
2022/11/07 11:29:34;;;;;;;10.50;5.50;;;;;;;16.91;50.55;99863.56;4981142;28;20480;-93
2022/11/07 11:32:00;;;;;;;9.30;5.68;;;;;;;16.98;49.74;99833.25;5019801;28;20056;-95
2022/11/07 11:37:41;;;;;;;13.80;5.60;;;;;;;16.77;50.28;99830.88;5026414;28;20042;-96
2022/11/07 11:40:11;;;;;;;11.77;5.80;;;;;;;16.54;50.35;99825.25;4986447;28;20041;-96
2022/11/07 11:43:01;;;;;;;8.23;5.00;;;;;;;16.67;50.88;99842.72;4984617;28;20044;-92
2022/11/07 11:46:07;;;;;;;14.18;5.30;;;;;;;16.70;50.33;99833.16;5015245;28;20068;-92
2022/11/07 11:48:55;;;;;;;8.77;4.93;;;;;;;16.40;50.75;99820.88;5012158;28;20102;-96
2022/11/07 11:51:36;;;;;;;8.48;5.00;;;;;;;16.41;51.29;99828.72;4997722;28;20464;-96
2022/11/07 11:54:04;;;;;;;5.38;3.83;;;;;;;16.24;50.95;99806.72;5035406;28;20063;-95
2022/11/07 11:57:09;;;;;;;11.10;4.70;;;;;;;16.42;50.92;99824.91;4999351;28;20033;-95